Time;durP1;ratioP1;P1;durP2;ratioP2;P2;SDS_P1;SDS_P2;PMS_P1;PMS_P2;Temp;Humidity;BMP_temperature;BMP_pressure;BME280_temperature;BME280_humidity;BME280_pressure;Samples;Min_cycle;Max_cycle;Signal;HPM_P1;HPM_P2
2024/02/16 00:01:08;;;;;;;10.20;9.50;;;13.70;23.70;;;;;;5048027;28;20431;-79
2024/02/16 00:03:36;;;;;;;11.03;9.97;;;13.70;23.60;;;;;;5021934;28;20435;-79
2024/02/16 00:06:06;;;;;;;9.37;8.83;;;13.70;23.60;;;;;;5018608;28;20582;-79
2024/02/16 00:08:42;;;;;;;10.10;9.40;;;13.80;23.70;;;;;;5046857;28;20479;-79
2024/02/16 00:11:15;;;;;;;9.73;9.23;;;13.80;23.50;;;;;;5038513;28;20422;-79
2024/02/16 00:13:49;;;;;;;10.90;10.00;;;13.80;23.50;;;;;;5019987;28;20431;-79
2024/02/16 00:16:34;;;;;;;11.63;9.97;;;13.80;23.60;;;;;;5055491;28;20807;-79
2024/02/16 00:19:18;;;;;;;10.60;10.00;;;13.90;23.70;;;;;;5054311;28;20463;-79
2024/02/16 00:22:19;;;;;;;11.40;10.60;;;13.90;23.50;;;;;;5039866;28;20504;-79
2024/02/16 00:24:48;;;;;;;12.20;11.50;;;13.90;23.40;;;;;;5051390;28;20438;-79
2024/02/16 00:27:19;;;;;;;12.00;11.00;;;13.90;23.60;;;;;;5060197;28;20435;-79
2024/02/16 00:30:13;;;;;;;11.93;11.07;;;13.90;23.60;;;;;;5076604;28;20654;-79
2024/02/16 00:32:45;;;;;;;12.00;11.30;;;13.90;23.50;;;;;;5059434;28;20426;-79
2024/02/16 00:35:11;;;;;;;10.67;10.07;;;13.90;23.70;;;;;;5059476;28;20482;-79
2024/02/16 00:37:39;;;;;;;10.90;10.20;;;13.90;23.50;;;;;;5056903;28;20461;-79
2024/02/16 00:40:10;;;;;;;10.93;10.33;;;13.90;23.50;;;;;;5056276;28;20489;-79
2024/02/16 00:42:37;;;;;;;10.40;9.70;;;13.90;23.60;;;;;;5046219;28;20429;-79
2024/02/16 00:45:25;;;;;;;10.83;10.13;;;13.90;23.80;;;;;;5037988;28;20433;-79
2024/02/16 00:47:52;;;;;;;11.27;10.67;;;13.90;23.80;;;;;;5031192;28;20478;-79
2024/02/16 00:50:26;;;;;;;11.50;10.90;;;13.80;24.00;;;;;;5046239;28;20525;-79
2024/02/16 00:53:12;;;;;;;10.80;10.20;;;13.90;23.90;;;;;;5036329;28;20415;-79
2024/02/16 00:55:41;;;;;;;11.00;10.20;;;13.80;23.70;;;;;;5029279;28;20444;-79
2024/02/16 00:58:14;;;;;;;11.83;10.90;;;13.90;23.60;;;;;;5021159;28;20797;-79
2024/02/16 01:00:41;;;;;;;10.53;9.80;;;13.80;23.80;;;;;;5059903;28;20430;-79
2024/02/16 01:03:07;;;;;;;10.97;10.27;;;13.80;23.70;;;;;;5026436;28;20503;-79
2024/02/16 01:05:42;;;;;;;11.77;11.00;;;13.80;23.90;;;;;;5041920;28;20449;-79
2024/02/16 01:08:11;;;;;;;11.93;11.30;;;13.80;23.90;;;;;;5051920;28;20565;-78
2024/02/16 01:10:40;;;;;;;12.40;11.27;;;13.80;23.80;;;;;;5040148;28;20414;-79
2024/02/16 01:13:07;;;;;;;12.73;11.73;;;13.80;23.80;;;;;;5037760;28;20423;-79
2024/02/16 01:16:19;;;;;;;12.50;11.90;;;13.80;23.70;;;;;;5022554;28;20419;-79
2024/02/16 01:19:06;;;;;;;12.50;11.70;;;13.80;23.80;;;;;;5027898;28;20896;-79
2024/02/16 01:21:31;;;;;;;12.30;11.50;;;13.70;24.10;;;;;;5028638;28;20415;-79
2024/02/16 01:23:59;;;;;;;11.53;10.83;;;13.70;24.00;;;;;;5054750;28;20771;-79
2024/02/16 01:26:25;;;;;;;12.13;11.23;;;13.70;23.90;;;;;;5053465;28;20977;-79
2024/02/16 01:28:50;;;;;;;12.60;11.80;;;13.70;24.00;;;;;;5035367;28;20486;-79
2024/02/16 01:31:16;;;;;;;12.13;11.23;;;13.60;24.40;;;;;;5052609;28;20187;-79
2024/02/16 01:33:41;;;;;;;12.80;11.90;;;13.50;24.40;;;;;;5054775;28;20607;-78
2024/02/16 01:36:07;;;;;;;11.60;10.90;;;13.60;24.60;;;;;;5036556;28;20653;-79
2024/02/16 01:38:33;;;;;;;12.20;11.23;;;13.60;24.40;;;;;;5057701;28;20202;-79
2024/02/16 01:40:58;;;;;;;13.70;12.67;;;13.70;24.20;;;;;;5040295;28;20262;-79
2024/02/16 01:43:24;;;;;;;12.00;11.30;;;13.80;24.20;;;;;;5055210;28;20858;-79
2024/02/16 01:45:49;;;;;;;11.70;11.00;;;13.70;24.10;;;;;;5058148;28;20255;-78
2024/02/16 01:48:16;;;;;;;13.17;12.27;;;13.70;23.90;;;;;;5056882;28;20215;-78
2024/02/16 01:50:45;;;;;;;12.60;12.00;;;13.70;23.90;;;;;;5058127;28;20174;-79
2024/02/16 01:53:12;;;;;;;12.00;11.07;;;13.80;23.70;;;;;;5058598;28;20414;-78
2024/02/16 01:55:38;;;;;;;13.17;12.37;;;13.80;23.90;;;;;;5051175;28;20505;-78
2024/02/16 01:58:04;;;;;;;12.70;11.90;;;13.70;24.00;;;;;;5051598;28;20438;-79
2024/02/16 02:00:30;;;;;;;13.20;12.30;;;13.70;24.10;;;;;;5054525;28;20471;-79
2024/02/16 02:02:57;;;;;;;11.73;11.07;;;13.70;24.20;;;;;;5040229;28;20932;-79
2024/02/16 02:05:22;;;;;;;14.20;12.80;;;13.70;25.00;;;;;;5056589;28;20180;-79
2024/02/16 02:07:48;;;;;;;12.43;11.63;;;13.70;24.70;;;;;;5031341;28;20561;-79
2024/02/16 02:10:17;;;;;;;12.83;11.83;;;13.80;25.00;;;;;;5055142;28;20176;-79
2024/02/16 02:12:44;;;;;;;13.00;12.10;;;13.80;25.30;;;;;;5058388;28;20176;-79
2024/02/16 02:15:09;;;;;;;12.57;11.60;;;13.70;24.90;;;;;;5039477;28;20415;-79
2024/02/16 02:17:36;;;;;;;12.50;11.80;;;13.70;25.20;;;;;;5039691;28;20442;-79
2024/02/16 02:20:08;;;;;;;12.07;11.47;;;13.70;25.10;;;;;;5032046;28;20200;-78
2024/02/16 02:22:33;;;;;;;12.73;11.97;;;13.70;25.10;;;;;;5052285;28;20818;-78
2024/02/16 02:24:59;;;;;;;12.40;11.60;;;13.60;25.90;;;;;;5056251;28;20426;-78
2024/02/16 02:27:25;;;;;;;11.30;10.70;;;13.60;26.10;;;;;;5037517;28;20235;-79
2024/02/16 02:29:51;;;;;;;13.27;12.27;;;13.60;25.60;;;;;;5033933;28;20179;-79
2024/02/16 02:32:16;;;;;;;13.33;12.53;;;13.60;25.60;;;;;;5039866;28;20176;-79
2024/02/16 02:34:43;;;;;;;12.57;11.60;;;13.60;25.60;;;;;;5040354;28;20172;-79
2024/02/16 02:37:08;;;;;;;12.80;12.07;;;13.60;25.60;;;;;;5039775;28;20203;-79
2024/02/16 02:39:34;;;;;;;12.20;11.40;;;13.60;25.60;;;;;;5056778;28;20419;-80
2024/02/16 02:42:00;;;;;;;13.00;12.33;;;13.60;25.60;;;;;;5039632;28;20178;-79
2024/02/16 02:44:26;;;;;;;13.07;11.90;;;13.70;25.70;;;;;;5057413;28;20184;-79
2024/02/16 02:46:52;;;;;;;13.30;12.53;;;13.70;26.10;;;;;;5057468;28;20180;-79
2024/02/16 02:49:18;;;;;;;14.00;13.10;;;13.60;25.90;;;;;;5050055;28;20482;-79
2024/02/16 02:51:43;;;;;;;14.63;13.67;;;13.70;25.70;;;;;;5057426;28;20762;-79
2024/02/16 02:54:09;;;;;;;13.20;12.40;;;13.70;25.90;;;;;;5039493;28;20434;-79
2024/02/16 02:56:35;;;;;;;13.23;12.43;;;13.60;25.80;;;;;;5050630;28;20182;-79
2024/02/16 02:59:00;;;;;;;12.60;11.70;;;13.40;27.10;;;;;;5030427;28;20196;-79
2024/02/16 03:01:26;;;;;;;13.23;12.43;;;13.40;26.50;;;;;;5056237;28;20425;-79
2024/02/16 03:03:51;;;;;;;13.00;12.10;;;13.50;26.20;;;;;;5057417;28;20188;-79
2024/02/16 03:06:18;;;;;;;13.80;12.90;;;13.50;25.90;;;;;;5056971;28;20191;-79
2024/02/16 03:08:43;;;;;;;14.53;13.63;;;13.50;25.60;;;;;;5056700;28;20216;-79
2024/02/16 03:11:09;;;;;;;14.17;13.20;;;13.50;25.60;;;;;;5057153;28;20490;-79
2024/02/16 03:13:34;;;;;;;14.03;13.23;;;13.60;25.60;;;;;;5055829;28;20180;-79
2024/02/16 03:16:00;;;;;;;13.37;12.50;;;13.60;25.60;;;;;;5057098;28;20187;-80
2024/02/16 03:18:30;;;;;;;13.53;12.60;;;13.60;25.60;;;;;;5056068;28;20228;-80
2024/02/16 03:20:56;;;;;;;14.73;13.67;;;13.60;25.60;;;;;;5056984;28;20559;-79
2024/02/16 03:23:22;;;;;;;12.47;11.53;;;13.60;25.60;;;;;;5038994;28;20448;-80
2024/02/16 03:25:51;;;;;;;12.80;11.97;;;13.60;26.60;;;;;;5038997;28;20468;-79
2024/02/16 03:28:16;;;;;;;12.47;11.67;;;13.60;26.80;;;;;;5056049;28;20469;-79
2024/02/16 03:30:43;;;;;;;12.63;11.90;;;13.50;27.00;;;;;;5057173;28;20787;-79
2024/02/16 03:33:09;;;;;;;13.60;12.70;;;13.50;26.90;;;;;;5050954;28;20702;-79
2024/02/16 03:35:36;;;;;;;13.40;12.60;;;13.40;27.50;;;;;;5038226;28;20780;-79
2024/02/16 03:38:02;;;;;;;12.27;11.67;;;13.40;27.30;;;;;;5056188;28;20438;-80
2024/02/16 03:40:28;;;;;;;12.53;11.83;;;13.40;26.90;;;;;;5056951;28;20422;-79
2024/02/16 03:42:54;;;;;;;14.20;13.03;;;13.50;26.60;;;;;;5056910;28;20423;-80
2024/02/16 03:45:20;;;;;;;12.97;12.07;;;13.50;26.40;;;;;;5040840;28;20418;-79
2024/02/16 03:47:48;;;;;;;12.47;11.77;;;13.50;26.50;;;;;;5045262;28;20589;-79
2024/02/16 03:50:14;;;;;;;13.20;12.00;;;13.50;26.70;;;;;;5040052;28;20514;-79
2024/02/16 03:52:40;;;;;;;11.80;11.10;;;13.50;26.60;;;;;;5056490;28;20501;-79
2024/02/16 03:55:06;;;;;;;12.43;11.67;;;13.50;26.70;;;;;;5055741;28;20419;-80
2024/02/16 03:57:31;;;;;;;12.87;12.17;;;13.50;26.70;;;;;;5055320;28;20199;-79
2024/02/16 03:59:57;;;;;;;12.50;11.80;;;13.50;26.60;;;;;;5055755;28;20418;-79
2024/02/16 04:02:22;;;;;;;13.27;12.47;;;13.50;26.50;;;;;;5056246;28;20237;-79
2024/02/16 04:04:50;;;;;;;12.70;12.00;;;13.40;26.70;;;;;;5031957;28;20199;-79
2024/02/16 04:07:17;;;;;;;14.10;12.97;;;13.40;27.20;;;;;;5053987;28;20221;-79
2024/02/16 04:09:42;;;;;;;12.10;11.43;;;13.30;27.30;;;;;;5053923;28;20453;-79
2024/02/16 04:12:09;;;;;;;12.63;11.80;;;13.30;27.20;;;;;;5056008;28;20415;-79
2024/02/16 04:14:34;;;;;;;12.83;12.13;;;13.30;26.80;;;;;;5053155;28;20180;-79
2024/02/16 04:17:00;;;;;;;11.97;11.27;;;13.40;26.80;;;;;;5055556;28;20448;-79
2024/02/16 04:19:26;;;;;;;12.80;12.03;;;13.50;26.70;;;;;;5055037;28;20199;-79
2024/02/16 04:21:52;;;;;;;12.70;12.00;;;13.50;26.40;;;;;;5049726;28;20550;-79
2024/02/16 04:24:17;;;;;;;12.67;11.33;;;13.60;26.40;;;;;;5036871;28;20233;-80
2024/02/16 04:26:43;;;;;;;13.20;12.50;;;13.70;25.70;;;;;;5048749;28;20275;-80
2024/02/16 04:29:09;;;;;;;12.70;11.90;;;13.80;25.80;;;;;;5054609;28;20546;-80
2024/02/16 04:31:34;;;;;;;12.20;11.13;;;13.80;25.80;;;;;;5038613;28;20589;-80
2024/02/16 04:34:01;;;;;;;12.80;12.10;;;13.80;25.50;;;;;;5052892;28;20172;-80
2024/02/16 04:36:27;;;;;;;12.43;11.53;;;13.90;25.30;;;;;;5040572;28;20180;-80
2024/02/16 04:38:52;;;;;;;12.60;11.60;;;13.90;25.60;;;;;;5055309;28;20526;-80
2024/02/16 04:41:20;;;;;;;13.53;12.63;;;13.90;25.10;;;;;;5038433;28;20183;-80
2024/02/16 04:43:45;;;;;;;12.50;11.80;;;13.90;25.00;;;;;;5055367;28;20180;-80
2024/02/16 04:46:15;;;;;;;12.67;11.70;;;13.90;24.90;;;;;;5037005;28;20426;-80
2024/02/16 04:48:41;;;;;;;12.03;11.43;;;14.00;24.60;;;;;;5036397;28;20641;-80
2024/02/16 04:51:06;;;;;;;13.30;12.40;;;14.00;24.60;;;;;;5055322;28;20422;-80
2024/02/16 04:53:32;;;;;;;13.53;12.43;;;14.00;24.60;;;;;;5054763;28;20533;-80
2024/02/16 04:55:58;;;;;;;13.43;12.43;;;14.00;24.50;;;;;;5055236;28;20184;-80
2024/02/16 04:58:23;;;;;;;12.93;12.03;;;13.90;25.10;;;;;;5053527;28;20282;-80
2024/02/16 05:00:49;;;;;;;12.10;11.30;;;13.80;25.30;;;;;;5055023;28;20179;-80
2024/02/16 05:03:15;;;;;;;12.70;11.70;;;13.90;24.80;;;;;;5052705;28;20178;-78
2024/02/16 05:05:41;;;;;;;12.80;12.00;;;13.80;24.50;;;;;;5054701;28;20628;-80
2024/02/16 05:08:06;;;;;;;12.17;11.43;;;13.80;24.40;;;;;;5035552;28;20242;-78
2024/02/16 05:10:32;;;;;;;12.33;11.50;;;13.80;24.40;;;;;;5057123;28;20418;-80
2024/02/16 05:12:59;;;;;;;12.30;11.60;;;13.80;24.50;;;;;;5053146;28;20593;-80
2024/02/16 05:15:25;;;;;;;11.90;11.23;;;13.80;24.10;;;;;;5052387;28;20241;-80
2024/02/16 05:17:51;;;;;;;12.87;11.77;;;13.80;24.00;;;;;;5042876;28;20868;-80
2024/02/16 05:20:19;;;;;;;12.83;12.20;;;13.90;24.30;;;;;;5060758;28;20489;-80
2024/02/16 05:22:46;;;;;;;13.53;12.50;;;13.90;24.10;;;;;;5033414;28;20191;-80
2024/02/16 05:25:17;;;;;;;12.83;12.13;;;13.90;24.10;;;;;;5059266;28;20422;-80
2024/02/16 05:27:44;;;;;;;13.17;12.47;;;13.90;24.20;;;;;;5058241;28;20470;-79
2024/02/16 05:30:17;;;;;;;12.50;11.60;;;13.90;23.70;;;;;;5035070;28;20480;-79
2024/02/16 05:32:47;;;;;;;11.97;11.30;;;13.80;23.70;;;;;;5033390;28;20421;-79
2024/02/16 05:35:19;;;;;;;11.40;10.90;;;13.90;23.60;;;;;;5040959;28;20474;-79
2024/02/16 05:37:51;;;;;;;12.23;11.60;;;13.90;23.30;;;;;;5040404;28;20446;-78
2024/02/16 05:40:29;;;;;;;12.83;12.10;;;13.80;23.20;;;;;;5021617;28;20521;-79
2024/02/16 05:43:04;;;;;;;11.90;11.00;;;13.90;23.30;;;;;;5037067;28;20427;-79
2024/02/16 05:45:35;;;;;;;10.50;9.80;;;13.80;22.40;;;;;;5024180;28;20437;-79
2024/02/16 05:48:06;;;;;;;10.97;10.40;;;13.90;22.30;;;;;;5048666;28;20564;-79
2024/02/16 05:50:32;;;;;;;10.20;9.63;;;13.90;22.10;;;;;;5036570;28;20840;-79
2024/02/16 05:52:59;;;;;;;10.23;9.73;;;13.90;22.20;;;;;;5040905;28;20484;-79
2024/02/16 05:55:25;;;;;;;10.47;9.77;;;13.90;21.70;;;;;;5059231;28;20198;-79
2024/02/16 05:58:04;;;;;;;10.43;9.83;;;13.80;21.70;;;;;;5040949;28;20450;-78
2024/02/16 06:00:34;;;;;;;10.30;9.80;;;13.90;21.70;;;;;;5058447;28;20647;-79
2024/02/16 06:03:00;;;;;;;9.63;9.13;;;13.90;22.00;;;;;;5058708;28;20419;-79
2024/02/16 06:05:25;;;;;;;10.50;10.00;;;13.80;21.70;;;;;;5059043;28;20975;-79
2024/02/16 06:08:00;;;;;;;10.60;10.10;;;13.80;20.50;;;;;;5040288;28;20206;-79
2024/02/16 06:10:29;;;;;;;10.73;10.13;;;13.80;21.10;;;;;;5043167;28;20662;-78
2024/02/16 06:12:56;;;;;;;9.93;9.43;;;13.70;21.40;;;;;;5058291;28;20414;-79
2024/02/16 06:15:31;;;;;;;10.17;9.70;;;13.70;21.60;;;;;;5040803;28;20406;-79
2024/02/16 06:17:57;;;;;;;9.90;9.30;;;13.70;21.20;;;;;;5038442;28;20507;-79
2024/02/16 06:20:37;;;;;;;10.40;9.90;;;13.70;21.10;;;;;;5058029;28;20438;-79
2024/02/16 06:23:04;;;;;;;11.40;10.77;;;13.70;21.30;;;;;;5041949;28;20167;-79
2024/02/16 06:25:33;;;;;;;11.73;11.03;;;13.80;21.50;;;;;;5040667;28;20787;-79
2024/02/16 06:28:01;;;;;;;11.30;10.70;;;13.80;21.90;;;;;;5039888;28;20548;-79
2024/02/16 06:30:27;;;;;;;12.70;12.10;;;13.80;22.10;;;;;;5026182;28;20774;-79
2024/02/16 06:32:54;;;;;;;11.50;10.93;;;13.80;22.20;;;;;;5053357;28;20413;-79
2024/02/16 06:35:29;;;;;;;11.43;10.83;;;13.80;22.30;;;;;;5068984;28;20184;-79
2024/02/16 06:38:02;;;;;;;12.10;11.50;;;13.80;22.30;;;;;;5068071;28;20446;-80
2024/02/16 06:40:59;;;;;;;11.73;11.13;;;13.80;22.30;;;;;;5050232;28;20454;-80
2024/02/16 06:43:33;;;;;;;11.10;10.40;;;13.80;22.00;;;;;;5044925;28;20453;-80
2024/02/16 07:03:33;;;;;;;12.00;11.40;;;13.70;22.90;;;;;;5006912;28;20391;-83
2024/02/16 07:17:03;;;;;;;12.07;10.97;;;13.60;23.50;;;;;;4935592;29;20428;-83
2024/02/16 07:27:48;;;;;;;11.90;11.20;;;13.60;23.30;;;;;;4805386;29;20444;-83
2024/02/16 07:31:40;;;;;;;11.17;10.53;;;13.50;23.50;;;;;;4785490;30;20451;-82
2024/02/16 07:44:57;;;;;;;11.20;10.50;;;13.50;24.00;;;;;;4767420;30;20581;-85
2024/02/16 08:11:43;;;;;;;12.43;11.53;;;13.30;24.50;;;;;;4971520;28;20572;-83
2024/02/16 08:18:40;;;;;;;11.23;10.63;;;13.40;23.90;;;;;;4880017;29;20461;-82
2024/02/16 08:21:31;;;;;;;11.40;10.53;;;13.50;23.60;;;;;;4932690;29;20954;-83
2024/02/16 08:24:05;;;;;;;12.83;11.83;;;13.60;23.50;;;;;;4974288;28;20464;-81
2024/02/16 08:26:38;;;;;;;12.53;11.63;;;13.60;23.40;;;;;;4967340;28;20469;-80
2024/02/16 08:29:26;;;;;;;12.33;11.40;;;13.60;23.60;;;;;;4971771;28;20887;-80
2024/02/16 08:32:22;;;;;;;11.30;10.50;;;13.70;23.20;;;;;;4955328;28;20433;-81
2024/02/16 08:35:19;;;;;;;11.00;10.40;;;13.70;22.80;;;;;;4971061;28;20434;-79
2024/02/16 08:37:46;;;;;;;11.77;10.80;;;13.70;22.70;;;;;;4985596;28;20473;-80
2024/02/16 08:40:25;;;;;;;11.53;10.90;;;13.80;22.90;;;;;;4992758;28;20444;-79
2024/02/16 08:43:12;;;;;;;11.60;10.90;;;13.80;23.10;;;;;;4992855;28;20437;-78
2024/02/16 08:46:07;;;;;;;10.73;10.10;;;13.90;22.50;;;;;;4998573;28;20445;-82
2024/02/16 08:49:29;;;;;;;;;;;;;;;;;;;;;
2024/02/16 08:51:54;;;;;;;10.30;9.70;;;13.90;22.60;;;;;;4992454;28;20476;-81
2024/02/16 08:54:57;;;;;;;12.63;11.30;;;14.00;22.90;;;;;;4990690;28;20441;-82
2024/02/16 09:05:17;;;;;;;10.77;10.17;;;14.10;22.20;;;;;;4974155;28;20989;-81
2024/02/16 09:07:47;;;;;;;12.33;11.40;;;14.20;21.90;;;;;;4984064;28;20464;-81
2024/02/16 09:10:37;;;;;;;11.27;10.70;;;14.20;21.80;;;;;;4990479;28;20438;-81
2024/02/16 09:13:13;;;;;;;10.77;10.17;;;14.20;21.60;;;;;;4985723;28;20841;-81
2024/02/16 09:16:47;;;;;;;10.47;9.93;;;14.30;21.50;;;;;;4979238;28;20519;-82
2024/02/16 09:41:09;;;;;;;11.20;10.30;;;14.70;21.20;;;;;;4836621;29;20444;-80
2024/02/16 09:50:47;;;;;;;10.87;10.20;;;15.00;20.70;;;;;;4841554;29;20431;-83
2024/02/16 09:53:53;;;;;;;11.60;10.90;;;15.10;20.20;;;;;;4902879;29;20495;-81
2024/02/16 09:56:37;;;;;;;12.07;11.23;;;15.10;20.00;;;;;;4925730;28;20528;-81
2024/02/16 10:00:04;;;;;;;11.77;10.67;;;15.20;20.10;;;;;;4999640;28;21073;-82
2024/02/16 10:06:40;;;;;;;10.07;9.37;;;15.30;19.90;;;;;;5008363;28;20762;-83
2024/02/16 10:13:42;;;;;;;10.10;9.43;;;15.40;19.50;;;;;;5006249;28;20460;-81
2024/02/16 10:17:30;;;;;;;11.13;9.80;;;15.40;20.00;;;;;;4992092;28;20433;-82
2024/02/16 10:20:18;;;;;;;11.13;10.53;;;15.50;19.50;;;;;;5000207;22;20528;-79
2024/02/16 10:22:52;;;;;;;10.47;9.87;;;15.60;19.20;;;;;;4987978;28;20437;-79
2024/02/16 10:25:21;;;;;;;11.83;10.90;;;15.70;18.80;;;;;;4975758;28;20434;-79
2024/02/16 10:27:47;;;;;;;11.40;10.60;;;15.70;19.00;;;;;;4977873;28;20786;-79
2024/02/16 10:30:13;;;;;;;10.83;10.10;;;15.70;18.80;;;;;;4987486;28;20207;-79
2024/02/16 10:32:39;;;;;;;11.87;10.83;;;15.80;18.90;;;;;;4975856;28;20451;-80
2024/02/16 10:35:08;;;;;;;9.90;9.30;;;15.80;18.90;;;;;;4987769;28;20430;-79
2024/02/16 10:37:34;;;;;;;11.30;10.30;;;15.80;18.90;;;;;;4989661;28;20441;-81
2024/02/16 10:40:02;;;;;;;10.43;9.70;;;15.90;18.90;;;;;;4982364;28;20593;-81
2024/02/16 10:42:39;;;;;;;10.27;9.43;;;15.80;19.50;;;;;;4986849;28;20186;-82
2024/02/16 10:45:20;;;;;;;9.13;8.33;;;15.90;19.50;;;;;;4985361;28;20429;-82
2024/02/16 10:47:46;;;;;;;9.77;9.10;;;15.90;18.90;;;;;;4975594;28;20463;-82
2024/02/16 10:50:21;;;;;;;10.07;9.27;;;15.80;18.90;;;;;;4980883;28;20824;-82
2024/02/16 10:52:48;;;;;;;13.97;10.30;;;15.90;18.90;;;;;;4977982;28;20281;-82
2024/02/16 10:55:15;;;;;;;10.43;9.63;;;15.90;18.90;;;;;;4985319;28;20429;-82
2024/02/16 10:57:41;;;;;;;10.60;9.90;;;15.90;18.90;;;;;;4984027;28;20441;-82
2024/02/16 11:00:15;;;;;;;10.20;9.43;;;16.00;19.00;;;;;;4988475;28;20459;-82
2024/02/16 11:02:58;;;;;;;10.77;9.80;;;16.00;19.00;;;;;;4986790;28;20848;-81
2024/02/16 11:05:47;;;;;;;10.90;10.03;;;16.10;19.00;;;;;;4985182;28;20437;-82
2024/02/16 11:08:19;;;;;;;10.63;9.80;;;16.10;19.10;;;;;;4982933;28;20507;-82
2024/02/16 11:10:56;;;;;;;9.17;8.67;;;16.10;19.10;;;;;;4978952;28;20436;-81
2024/02/16 11:13:33;;;;;;;19.23;17.90;;;16.10;19.10;;;;;;4985054;28;20871;-82
2024/02/16 11:16:02;;;;;;;8.70;8.23;;;16.10;18.50;;;;;;4975942;28;20470;-82
2024/02/16 11:19:16;;;;;;;7.93;7.40;;;16.10;17.20;;;;;;4977332;28;20501;-82
2024/02/16 11:22:08;;;;;;;8.57;7.97;;;16.20;17.00;;;;;;4972749;28;20454;-83
2024/02/16 11:25:10;;;;;;;7.83;7.17;;;16.20;17.50;;;;;;5010656;28;20434;-83
2024/02/16 11:27:48;;;;;;;8.30;7.73;;;16.20;17.30;;;;;;4986686;28;20433;-81
2024/02/16 11:30:44;;;;;;;8.33;7.83;;;16.30;17.40;;;;;;4986726;28;20445;-82
2024/02/16 11:33:14;;;;;;;8.93;8.33;;;16.30;17.10;;;;;;4990628;28;20436;-81
2024/02/16 11:36:12;;;;;;;9.40;8.90;;;16.40;17.20;;;;;;4983053;28;20422;-82
2024/02/16 11:38:37;;;;;;;9.23;8.53;;;16.40;17.20;;;;;;4984673;28;20439;-81
2024/02/16 11:41:09;;;;;;;10.07;9.37;;;16.40;17.70;;;;;;4982143;28;20457;-82
2024/02/16 11:43:38;;;;;;;8.03;7.43;;;16.40;17.40;;;;;;4983996;28;20281;-82
2024/02/16 11:49:08;;;;;;;10.00;9.27;;;16.40;17.50;;;;;;4990788;28;21004;-81
2024/02/16 11:51:39;;;;;;;9.20;8.70;;;16.40;17.20;;;;;;4988202;28;20475;-81
2024/02/16 11:54:04;;;;;;;7.60;7.10;;;16.50;17.30;;;;;;4994096;28;20505;-81
2024/02/16 11:56:30;;;;;;;7.73;7.13;;;16.40;17.80;;;;;;4980803;28;20457;-82
2024/02/16 11:58:56;;;;;;;9.00;8.40;;;16.40;17.10;;;;;;4984522;28;20209;-81
2024/02/16 12:01:22;;;;;;;8.17;7.67;;;16.50;17.30;;;;;;4981023;28;20976;-84
2024/02/16 12:03:48;;;;;;;7.10;6.70;;;16.60;17.50;;;;;;4979213;28;20421;-82
2024/02/16 12:06:24;;;;;;;7.60;7.20;;;16.70;17.30;;;;;;4979452;28;20190;-82
2024/02/16 12:08:50;;;;;;;7.43;6.83;;;16.70;17.40;;;;;;4980315;28;20206;-83
2024/02/16 12:11:15;;;;;;;6.93;6.60;;;16.80;17.30;;;;;;4982702;28;20445;-82
2024/02/16 12:13:41;;;;;;;7.00;6.60;;;16.80;17.20;;;;;;4981681;28;20798;-82
2024/02/16 12:16:20;;;;;;;7.17;6.77;;;16.90;17.10;;;;;;4969176;28;20179;-82
2024/02/16 12:18:50;;;;;;;8.00;7.60;;;17.00;16.80;;;;;;4965211;28;20586;-83
2024/02/16 12:21:30;;;;;;;7.20;6.80;;;17.00;16.80;;;;;;4976225;28;20447;-82
2024/02/16 12:23:56;;;;;;;7.17;6.70;;;17.00;17.00;;;;;;4976185;28;20418;-82
2024/02/16 12:26:25;;;;;;;7.80;7.00;;;17.00;17.20;;;;;;4980273;28;20417;-81
2024/02/16 12:28:52;;;;;;;8.67;8.07;;;17.10;17.60;;;;;;4967501;28;20466;-82
2024/02/16 12:31:22;;;;;;;7.47;6.87;;;17.10;17.40;;;;;;4979695;28;20425;-82
2024/02/16 12:33:49;;;;;;;7.67;7.17;;;17.10;17.20;;;;;;4982106;28;20443;-82
2024/02/16 12:36:17;;;;;;;6.77;6.37;;;17.10;17.00;;;;;;5007917;28;20429;-82
2024/02/16 12:38:45;;;;;;;7.90;7.17;;;17.10;16.80;;;;;;4981708;28;20970;-82
2024/02/16 12:41:12;;;;;;;8.47;8.00;;;17.10;16.80;;;;;;4973986;28;20525;-82
2024/02/16 12:43:38;;;;;;;7.50;6.97;;;17.10;17.00;;;;;;4975169;28;20427;-82
2024/02/16 12:46:05;;;;;;;7.73;6.73;;;17.10;17.10;;;;;;4960352;28;20957;-82
2024/02/16 12:48:31;;;;;;;6.73;6.40;;;17.10;17.10;;;;;;4982056;28;20473;-82
2024/02/16 12:50:57;;;;;;;7.93;7.50;;;17.20;17.00;;;;;;4981098;28;20421;-82
2024/02/16 12:53:25;;;;;;;7.50;7.10;;;17.10;17.00;;;;;;4984693;28;20186;-83
2024/02/16 12:55:51;;;;;;;8.23;7.73;;;17.20;17.30;;;;;;4974265;28;20430;-83
2024/02/16 12:58:17;;;;;;;8.37;7.53;;;17.10;17.30;;;;;;4984723;28;20448;-83
2024/02/16 13:00:44;;;;;;;7.77;7.27;;;17.10;17.80;;;;;;4984082;28;20217;-83
2024/02/16 13:03:12;;;;;;;7.77;7.47;;;17.10;17.20;;;;;;4973878;28;20423;-82
2024/02/16 13:05:38;;;;;;;8.10;7.60;;;17.10;17.40;;;;;;4985914;28;20859;-82
2024/02/16 13:08:11;;;;;;;9.13;8.53;;;17.10;17.60;;;;;;4975632;28;20488;-82
2024/02/16 13:10:37;;;;;;;8.67;7.90;;;17.10;16.90;;;;;;4979616;28;20878;-83
2024/02/16 13:13:02;;;;;;;8.73;8.10;;;17.10;16.90;;;;;;4984073;28;20190;-83
2024/02/16 13:15:28;;;;;;;9.23;8.40;;;17.10;17.10;;;;;;4980358;28;20493;-82
2024/02/16 13:17:54;;;;;;;8.67;8.00;;;17.10;17.40;;;;;;4986675;28;20177;-82
2024/02/16 13:20:19;;;;;;;8.40;7.90;;;17.10;17.50;;;;;;4980157;28;20218;-81
2024/02/16 13:22:45;;;;;;;7.80;7.40;;;17.10;17.50;;;;;;4980440;28;20171;-79
2024/02/16 13:25:10;;;;;;;8.40;7.70;;;17.10;17.40;;;;;;4978138;28;20233;-82
2024/02/16 13:27:36;;;;;;;7.87;7.20;;;17.10;17.60;;;;;;4983450;28;20233;-83
2024/02/16 13:30:02;;;;;;;9.27;8.50;;;17.00;17.80;;;;;;4981676;28;20217;-82
2024/02/16 13:32:28;;;;;;;8.37;7.87;;;17.00;18.10;;;;;;4983164;28;20926;-82
2024/02/16 13:34:53;;;;;;;8.20;7.60;;;17.00;18.40;;;;;;4990337;28;20642;-82
2024/02/16 13:37:19;;;;;;;8.50;8.10;;;17.00;18.50;;;;;;4985733;28;20244;-82
2024/02/16 13:39:44;;;;;;;9.40;8.80;;;17.00;18.50;;;;;;4987890;28;20548;-80
2024/02/16 13:42:14;;;;;;;8.03;7.53;;;17.00;18.90;;;;;;4985229;28;20553;-81
2024/02/16 13:44:40;;;;;;;8.43;8.03;;;17.00;18.80;;;;;;4985211;28;20546;-79
2024/02/16 13:47:05;;;;;;;8.70;8.00;;;17.00;19.00;;;;;;4979182;28;20432;-81
2024/02/16 13:49:34;;;;;;;7.87;7.30;;;17.00;19.70;;;;;;4983735;28;20210;-82
2024/02/16 13:52:00;;;;;;;8.70;7.90;;;16.90;19.60;;;;;;4979866;28;20668;-81
2024/02/16 13:54:26;;;;;;;9.17;8.47;;;16.90;19.60;;;;;;4983028;28;20483;-81
2024/02/16 13:56:53;;;;;;;9.53;8.63;;;16.90;19.60;;;;;;4976088;28;20234;-82
2024/02/16 13:59:19;;;;;;;9.27;8.47;;;16.90;19.60;;;;;;5005050;28;20445;-81
2024/02/16 14:01:52;;;;;;;9.20;8.57;;;16.90;19.60;;;;;;4988704;28;20428;-81
2024/02/16 14:04:19;;;;;;;9.43;8.80;;;16.90;19.70;;;;;;4993835;28;20426;-82
2024/02/16 14:06:45;;;;;;;8.50;8.07;;;16.90;19.90;;;;;;4983468;28;20423;-82
2024/02/16 14:09:13;;;;;;;9.17;8.47;;;16.90;20.00;;;;;;4987411;28;20598;-82
2024/02/16 14:11:41;;;;;;;8.33;7.77;;;16.90;20.10;;;;;;4991653;28;20514;-81
2024/02/16 14:14:28;;;;;;;10.10;9.30;;;16.90;20.10;;;;;;4994119;28;20452;-84
2024/02/16 14:16:54;;;;;;;8.40;7.80;;;16.90;20.40;;;;;;4988181;28;20418;-83
2024/02/16 14:19:20;;;;;;;9.13;8.50;;;16.90;20.30;;;;;;4984501;28;20433;-83
2024/02/16 14:21:47;;;;;;;8.70;8.00;;;16.90;20.20;;;;;;5000150;28;20434;-83
2024/02/16 14:24:13;;;;;;;8.70;8.10;;;16.90;20.10;;;;;;4979595;28;20565;-83
2024/02/16 14:26:38;;;;;;;9.07;8.47;;;16.80;20.30;;;;;;5005252;28;20433;-83
2024/02/16 14:29:07;;;;;;;10.13;9.00;;;16.80;20.20;;;;;;4984313;28;20492;-81
2024/02/16 14:31:35;;;;;;;9.27;8.47;;;16.80;20.50;;;;;;4981530;28;20179;-82
2024/02/16 14:34:01;;;;;;;8.90;8.30;;;16.80;20.60;;;;;;4986471;28;20426;-83
2024/02/16 14:36:27;;;;;;;8.67;8.17;;;16.80;20.60;;;;;;4984949;28;20533;-83
2024/02/16 14:38:55;;;;;;;9.13;8.33;;;16.80;20.50;;;;;;4980281;28;20213;-82
2024/02/16 14:41:22;;;;;;;8.50;8.00;;;16.80;20.60;;;;;;4981345;28;20270;-82
2024/02/16 14:43:48;;;;;;;9.27;8.37;;;16.80;20.70;;;;;;4984168;28;20432;-83
2024/02/16 14:46:15;;;;;;;8.77;8.10;;;16.80;21.10;;;;;;4983237;28;20409;-82
2024/02/16 14:48:41;;;;;;;9.33;8.73;;;16.80;21.10;;;;;;4983048;28;20225;-82
2024/02/16 14:51:07;;;;;;;8.83;8.13;;;16.80;21.20;;;;;;4984649;28;20415;-83
2024/02/16 14:53:34;;;;;;;9.33;8.80;;;16.80;20.90;;;;;;4989042;28;20186;-83
2024/02/16 14:56:02;;;;;;;9.43;8.53;;;16.80;20.70;;;;;;4985411;28;20814;-83
2024/02/16 14:58:39;;;;;;;9.27;8.33;;;16.90;20.90;;;;;;4987083;28;20428;-83
2024/02/16 15:01:38;;;;;;;9.27;8.17;;;17.00;20.80;;;;;;4981684;28;20528;-84